Time;durP1;ratioP1;P1;durP2;ratioP2;P2;SDS_P1;SDS_P2;PMS_P1;PMS_P2;Temp;Humidity;BMP_temperature;BMP_pressure;BME280_temperature;BME280_humidity;BME280_pressure;Samples;Min_cycle;Max_cycle;Signal;HPM_P1;HPM_P2
2023/05/17 00:02:22;;;;;;;0.77;0.70;;;8.10;99.90;;;;;;5000583;28;20121;-79
2023/05/17 00:04:48;;;;;;;0.70;0.70;;;8.10;99.90;;;;;;5000363;28;20126;-79
2023/05/17 00:07:14;;;;;;;0.45;0.45;;;8.10;99.90;;;;;;4999301;28;20018;-78
2023/05/17 00:09:39;;;;;;;1.13;0.90;;;8.10;99.90;;;;;;4999641;28;20030;-77
2023/05/17 00:12:05;;;;;;;1.35;0.80;;;8.10;99.90;;;;;;4999844;28;20045;-79
2023/05/17 00:14:30;;;;;;;0.80;0.75;;;8.10;99.90;;;;;;4999228;28;20038;-79
2023/05/17 00:16:56;;;;;;;0.70;0.70;;;8.10;99.90;;;;;;5000787;28;20027;-78
2023/05/17 00:19:22;;;;;;;0.98;0.80;;;8.00;99.90;;;;;;5000820;28;20033;-79
2023/05/17 00:21:47;;;;;;;0.68;0.68;;;8.00;99.90;;;;;;5001040;28;20097;-78
2023/05/17 00:24:13;;;;;;;0.70;0.70;;;8.00;99.90;;;;;;5018627;28;20047;-77
2023/05/17 00:26:39;;;;;;;1.40;1.02;;;8.00;99.90;;;;;;5020140;28;20535;-79
2023/05/17 00:29:05;;;;;;;1.15;0.70;;;8.00;99.90;;;;;;5017651;28;20018;-80
2023/05/17 00:31:30;;;;;;;0.50;0.50;;;8.00;99.90;;;;;;4991007;28;20037;-79
2023/05/17 00:33:56;;;;;;;2.55;0.85;;;8.00;99.90;;;;;;5002897;28;20013;-78
2023/05/17 00:36:22;;;;;;;1.95;1.08;;;8.00;99.90;;;;;;5018362;28;20430;-77
2023/05/17 00:38:47;;;;;;;1.05;0.93;;;7.90;99.90;;;;;;5018236;28;20033;-78
2023/05/17 00:41:13;;;;;;;1.40;1.05;;;8.00;99.90;;;;;;5016234;28;20034;-78
2023/05/17 00:43:38;;;;;;;1.80;0.93;;;7.90;99.90;;;;;;5018132;28;20129;-77
2023/05/17 00:46:04;;;;;;;1.15;1.05;;;8.00;99.90;;;;;;5018055;28;20025;-79
2023/05/17 00:48:30;;;;;;;2.22;0.80;;;7.90;99.90;;;;;;5018518;28;20026;-78
2023/05/17 00:50:57;;;;;;;1.65;0.93;;;7.90;99.90;;;;;;5019622;28;20037;-78
2023/05/17 00:53:23;;;;;;;1.27;1.10;;;7.90;99.90;;;;;;5016620;28;20026;-78
2023/05/17 00:55:49;;;;;;;3.47;1.25;;;7.90;99.90;;;;;;4998307;28;20027;-77
2023/05/17 00:58:15;;;;;;;4.80;1.15;;;7.90;99.90;;;;;;4997964;28;20030;-78
2023/05/17 01:00:42;;;;;;;1.90;1.40;;;7.80;99.90;;;;;;4997848;28;20479;-78
2023/05/17 01:03:07;;;;;;;1.30;1.15;;;7.80;99.90;;;;;;4997463;28;20026;-76
2023/05/17 01:05:33;;;;;;;2.45;1.00;;;7.80;99.90;;;;;;4996795;28;20043;-78
2023/05/17 01:07:59;;;;;;;1.67;1.10;;;7.80;99.90;;;;;;4997664;28;20438;-78
2023/05/17 01:10:36;;;;;;;1.95;1.48;;;7.80;99.90;;;;;;4997133;28;20035;-78
2023/05/17 01:13:09;;;;;;;3.22;1.10;;;7.70;99.90;;;;;;5000341;28;20042;-78
2023/05/17 01:15:37;;;;;;;;;;;7.70;99.90;;;;;;5017285;28;20083;-77
2023/05/17 01:18:37;;;;;;;2.22;0.93;;;7.70;99.90;;;;;;5027511;28;19905;-77
2023/05/17 01:21:16;;;;;;;2.10;1.30;;;7.70;99.90;;;;;;5023081;28;20057;-77
2023/05/17 01:23:54;;;;;;;2.75;1.33;;;7.60;99.90;;;;;;5025661;28;20030;-77
2023/05/17 01:26:42;;;;;;;1.25;1.08;;;7.60;99.90;;;;;;5019522;28;20081;-78
2023/05/17 01:29:08;;;;;;;10.05;1.25;;;7.60;99.90;;;;;;5020015;28;20030;-76
2023/05/17 01:31:36;;;;;;;4.00;1.30;;;7.60;99.90;;;;;;4998218;28;20030;-78
2023/05/17 01:34:09;;;;;;;2.08;1.08;;;7.60;99.90;;;;;;4977510;28;20046;-78
2023/05/17 01:36:36;;;;;;;1.63;1.17;;;7.60;99.90;;;;;;5024259;28;20096;-78
2023/05/17 01:39:02;;;;;;;1.77;1.10;;;7.50;99.90;;;;;;5016719;28;20557;-77
2023/05/17 01:41:42;;;;;;;3.80;1.20;;;7.60;99.90;;;;;;5016475;28;20343;-77
2023/05/17 01:44:22;;;;;;;4.70;1.30;;;7.60;99.90;;;;;;5014791;28;20129;-77
2023/05/17 01:46:59;;;;;;;4.07;1.20;;;7.60;99.90;;;;;;5015375;28;20399;-77
2023/05/17 01:49:31;;;;;;;2.60;1.35;;;7.60;99.90;;;;;;4996737;28;20042;-77
2023/05/17 01:52:06;;;;;;;1.65;1.13;;;7.60;99.90;;;;;;4996510;28;20056;-78
2023/05/17 01:54:40;;;;;;;4.63;1.05;;;7.60;99.90;;;;;;4994921;28;20464;-78
2023/05/17 01:57:08;;;;;;;2.72;1.27;;;7.50;99.90;;;;;;4995965;28;20034;-78
2023/05/17 01:59:37;;;;;;;4.45;1.70;;;7.50;99.90;;;;;;4995969;28;20026;-77
2023/05/17 02:02:07;;;;;;;4.78;1.60;;;7.50;99.90;;;;;;4993182;28;20101;-79
2023/05/17 02:04:34;;;;;;;6.88;1.60;;;7.50;99.90;;;;;;4980312;28;20027;-78
2023/05/17 02:07:01;;;;;;;2.08;1.35;;;7.50;99.90;;;;;;4996437;28;20046;-77
2023/05/17 02:09:27;;;;;;;1.65;1.10;;;7.50;99.90;;;;;;5015093;28;20511;-78
2023/05/17 02:11:53;;;;;;;3.42;1.40;;;7.60;99.90;;;;;;5016814;28;20052;-78
2023/05/17 02:14:19;;;;;;;1.23;1.02;;;7.60;99.90;;;;;;5026290;28;20048;-79
2023/05/17 02:16:44;;;;;;;4.38;1.40;;;7.60;99.90;;;;;;5034140;28;20017;-79
2023/05/17 02:19:11;;;;;;;2.65;1.50;;;7.60;99.90;;;;;;5016187;28;20030;-77
2023/05/17 02:21:37;;;;;;;1.00;1.00;;;7.60;99.90;;;;;;5016545;28;20018;-78
2023/05/17 02:24:03;;;;;;;1.40;1.20;;;7.60;99.90;;;;;;5015840;28;20387;-78
2023/05/17 02:26:30;;;;;;;7.55;2.08;;;7.60;99.90;;;;;;5015895;28;20036;-77
2023/05/17 02:28:57;;;;;;;1.90;1.50;;;7.60;99.90;;;;;;5014143;28;20117;-78
2023/05/17 02:31:25;;;;;;;4.50;1.90;;;7.50;99.90;;;;;;4997412;28;20026;-78
2023/05/17 02:33:52;;;;;;;5.63;1.67;;;7.50;99.90;;;;;;4978217;28;20015;-77
2023/05/17 02:36:17;;;;;;;4.57;1.83;;;7.50;99.90;;;;;;4982729;28;20029;-78
2023/05/17 02:38:43;;;;;;;2.53;1.45;;;7.50;99.90;;;;;;4996075;28;20027;-78
2023/05/17 02:41:09;;;;;;;2.50;1.73;;;7.50;99.90;;;;;;4990027;28;20099;-77
2023/05/17 02:43:34;;;;;;;4.95;1.65;;;7.50;99.90;;;;;;4991811;28;20026;-79
2023/05/17 02:46:00;;;;;;;3.72;1.60;;;7.50;99.90;;;;;;4994850;28;20069;-78
2023/05/17 02:48:26;;;;;;;4.43;2.00;;;7.50;99.90;;;;;;4995582;28;20101;-77
2023/05/17 02:50:51;;;;;;;4.00;1.77;;;7.50;99.90;;;;;;4994599;28;20018;-78
2023/05/17 02:53:17;;;;;;;2.00;1.35;;;7.40;99.90;;;;;;4995117;28;20030;-78
2023/05/17 02:55:43;;;;;;;2.75;1.88;;;7.40;99.90;;;;;;4995041;28;20069;-76
2023/05/17 02:58:08;;;;;;;1.63;1.17;;;7.40;99.90;;;;;;4994069;28;20023;-79
2023/05/17 03:00:34;;;;;;;2.70;1.52;;;7.40;99.90;;;;;;4995037;28;20042;-77
2023/05/17 03:03:00;;;;;;;2.60;1.60;;;7.30;99.90;;;;;;4994318;28;20086;-78
2023/05/17 03:05:26;;;;;;;4.00;1.48;;;7.30;99.90;;;;;;4995465;28;20041;-79
2023/05/17 03:07:51;;;;;;;3.75;1.20;;;7.30;99.90;;;;;;4999358;28;20026;-78
2023/05/17 03:10:17;;;;;;;2.00;1.20;;;7.30;99.90;;;;;;4999048;28;20365;-78
2023/05/17 03:12:43;;;;;;;1.45;1.30;;;7.30;99.90;;;;;;5012602;28;20033;-79
2023/05/17 03:15:09;;;;;;;1.08;0.93;;;7.30;99.90;;;;;;5001863;28;20034;-77
2023/05/17 03:17:35;;;;;;;1.40;1.02;;;7.30;99.90;;;;;;4999379;28;20054;-77
2023/05/17 03:20:01;;;;;;;4.35;1.30;;;7.30;99.90;;;;;;5008837;28;20579;-78
2023/05/17 03:22:27;;;;;;;1.98;1.17;;;7.30;99.90;;;;;;4998797;28;20050;-77
2023/05/17 03:24:52;;;;;;;1.48;1.15;;;7.30;99.90;;;;;;4998079;28;20030;-78
2023/05/17 03:27:18;;;;;;;1.00;0.90;;;7.30;99.90;;;;;;5000909;28;20443;-77
2023/05/17 03:29:44;;;;;;;2.60;1.20;;;7.30;99.90;;;;;;5016688;28;20034;-76
2023/05/17 03:32:09;;;;;;;2.70;0.95;;;7.20;99.90;;;;;;4989745;28;20399;-76
2023/05/17 03:34:35;;;;;;;2.90;1.50;;;7.20;99.90;;;;;;4997438;28;20019;-77
2023/05/17 03:37:01;;;;;;;2.10;1.30;;;7.20;99.90;;;;;;4996580;28;20127;-77
2023/05/17 03:39:26;;;;;;;1.73;1.10;;;7.20;99.90;;;;;;4998109;28;20038;-77
2023/05/17 03:41:52;;;;;;;1.40;1.20;;;7.20;99.90;;;;;;4997947;28;20033;-78
2023/05/17 03:44:18;;;;;;;3.42;1.67;;;7.20;99.90;;;;;;4996759;28;20372;-76
2023/05/17 03:46:43;;;;;;;2.20;1.25;;;7.10;99.90;;;;;;4996993;28;20035;-78
2023/05/17 03:49:09;;;;;;;4.05;1.20;;;7.10;99.90;;;;;;4998238;28;20296;-77
2023/05/17 03:51:35;;;;;;;3.35;2.17;;;7.10;99.90;;;;;;4998527;28;20038;-77
2023/05/17 03:54:01;;;;;;;5.40;1.75;;;7.00;99.90;;;;;;4997644;28;20030;-77
2023/05/17 03:56:26;;;;;;;3.50;1.30;;;7.00;99.90;;;;;;4998455;28;20056;-77
2023/05/17 03:58:52;;;;;;;2.00;1.00;;;7.00;99.90;;;;;;5013326;28;20025;-78
2023/05/17 04:01:19;;;;;;;1.42;1.02;;;7.00;99.90;;;;;;4997754;28;20073;-77
2023/05/17 04:03:45;;;;;;;2.17;0.98;;;7.00;99.90;;;;;;4980069;28;20522;-78
2023/05/17 04:06:13;;;;;;;1.98;1.10;;;7.00;99.90;;;;;;4977518;28;20035;-77
2023/05/17 04:08:39;;;;;;;6.38;1.40;;;7.10;99.90;;;;;;4978173;28;20101;-77
2023/05/17 04:11:12;;;;;;;4.53;1.75;;;7.10;99.90;;;;;;4978700;28;20031;-77
2023/05/17 04:13:41;;;;;;;2.65;1.05;;;7.00;99.90;;;;;;4977922;28;20165;-77
2023/05/17 04:16:10;;;;;;;5.28;1.25;;;7.00;99.90;;;;;;4975636;28;20037;-77
2023/05/17 04:18:37;;;;;;;1.92;1.15;;;7.00;99.90;;;;;;4977396;28;20027;-76
2023/05/17 04:21:03;;;;;;;2.75;1.05;;;7.10;99.90;;;;;;4977503;28;20050;-77
2023/05/17 04:23:30;;;;;;;1.42;0.95;;;7.10;99.90;;;;;;4977973;28;20106;-76
2023/05/17 04:25:57;;;;;;;2.25;1.50;;;7.10;99.90;;;;;;4977511;28;20057;-76
2023/05/17 04:28:23;;;;;;;2.28;0.80;;;7.10;99.90;;;;;;4977882;28;20018;-77
2023/05/17 04:30:49;;;;;;;1.90;1.20;;;7.10;99.90;;;;;;4994402;28;20090;-77
2023/05/17 04:33:15;;;;;;;1.25;1.15;;;7.10;99.90;;;;;;4995433;28;20030;-76
2023/05/17 04:35:41;;;;;;;2.03;0.90;;;7.10;99.90;;;;;;4994960;28;20031;-77
2023/05/17 04:38:08;;;;;;;1.95;0.70;;;7.10;99.90;;;;;;5010441;28;20032;-77
2023/05/17 04:40:35;;;;;;;2.30;0.98;;;7.20;99.90;;;;;;5016590;28;20026;-76
2023/05/17 04:43:01;;;;;;;1.30;0.68;;;7.20;99.90;;;;;;5017037;28;20121;-77
2023/05/17 04:45:27;;;;;;;0.95;0.80;;;7.20;99.90;;;;;;5015900;28;20068;-79
2023/05/17 04:47:52;;;;;;;0.88;0.80;;;7.20;99.90;;;;;;5016333;28;20022;-77
2023/05/17 04:50:18;;;;;;;0.90;0.90;;;7.20;99.90;;;;;;4999682;28;20072;-78
2023/05/17 04:52:45;;;;;;;1.25;0.82;;;7.30;99.90;;;;;;4996061;28;20049;-77
2023/05/17 04:55:11;;;;;;;1.70;0.70;;;7.30;99.90;;;;;;4996581;28;20066;-80
2023/05/17 04:57:37;;;;;;;1.23;1.02;;;7.30;99.90;;;;;;5004209;28;20034;-77
2023/05/17 05:00:05;;;;;;;1.75;0.80;;;7.40;99.90;;;;;;4995945;28;20043;-77
2023/05/17 05:02:31;;;;;;;0.80;0.70;;;7.40;99.90;;;;;;4998606;28;20086;-78
2023/05/17 05:04:57;;;;;;;1.17;0.80;;;7.50;99.90;;;;;;5012745;28;20030;-77
2023/05/17 05:07:29;;;;;;;1.10;0.80;;;7.50;99.90;;;;;;4991592;28;20030;-78
2023/05/17 05:09:55;;;;;;;;;;;7.50;99.90;;;;;;5003253;28;20030;-77
2023/05/17 05:12:21;;;;;;;2.42;1.20;;;7.60;99.90;;;;;;4991057;28;19913;-77
2023/05/17 05:14:46;;;;;;;1.42;0.98;;;7.60;99.90;;;;;;4992146;28;20090;-77
2023/05/17 05:17:12;;;;;;;1.33;1.00;;;7.80;99.90;;;;;;4986496;28;20034;-76
2023/05/17 05:19:38;;;;;;;0.90;0.80;;;7.90;99.90;;;;;;4989547;28;20475;-76
2023/05/17 05:22:03;;;;;;;1.92;0.90;;;8.00;99.90;;;;;;4994991;28;20035;-77
2023/05/17 05:24:29;;;;;;;5.90;1.35;;;8.10;99.90;;;;;;4995007;28;20029;-76
2023/05/17 05:26:55;;;;;;;2.72;1.05;;;8.10;99.90;;;;;;4995951;28;20018;-75
2023/05/17 05:29:20;;;;;;;4.93;1.10;;;8.10;99.90;;;;;;4994923;28;20459;-76
2023/05/17 05:31:46;;;;;;;2.08;0.88;;;8.10;99.90;;;;;;4992370;28;20451;-76
2023/05/17 05:34:12;;;;;;;1.45;0.98;;;8.20;99.90;;;;;;4976129;28;20501;-76
2023/05/17 05:36:37;;;;;;;2.10;0.77;;;8.50;99.90;;;;;;4991527;28;20030;-77
2023/05/17 05:39:03;;;;;;;0.90;0.80;;;8.90;99.90;;;;;;4997460;28;20050;-78
2023/05/17 05:41:29;;;;;;;2.17;0.95;;;9.20;99.90;;;;;;5002020;28;20049;-78
2023/05/17 05:43:54;;;;;;;3.17;1.17;;;9.80;99.90;;;;;;4998411;28;20034;-80
2023/05/17 05:46:20;;;;;;;0.60;0.60;;;10.70;99.90;;;;;;4996595;28;20041;-78
2023/05/17 05:48:46;;;;;;;1.73;0.47;;;11.40;99.90;;;;;;4995970;28;20037;-78
2023/05/17 05:51:11;;;;;;;5.40;1.25;;;11.90;98.90;;;;;;4996224;28;20014;-78
2023/05/17 05:53:37;;;;;;;1.95;0.70;;;12.30;98.20;;;;;;4996694;28;20035;-78
2023/05/17 05:56:03;;;;;;;3.35;1.23;;;12.50;97.30;;;;;;4996292;28;20029;-78
2023/05/17 05:58:30;;;;;;;19.52;8.57;;;12.80;96.80;;;;;;4997953;28;20034;-77
2023/05/17 06:00:56;;;;;;;15.32;7.57;;;13.10;97.40;;;;;;4994270;28;20053;-77
2023/05/17 06:03:22;;;;;;;12.60;5.93;;;13.50;99.50;;;;;;4992472;28;20491;-77
2023/05/17 06:05:48;;;;;;;9.25;5.75;;;14.20;97.30;;;;;;4994586;28;20088;-78
2023/05/17 06:08:13;;;;;;;5.63;2.05;;;14.80;92.30;;;;;;4996359;28;20027;-77
2023/05/17 06:10:39;;;;;;;2.42;1.40;;;15.00;90.00;;;;;;5002167;28;20037;-77
2023/05/17 06:13:05;;;;;;;2.88;1.23;;;15.40;92.20;;;;;;5000492;28;20411;-76
2023/05/17 06:15:31;;;;;;;3.00;1.20;;;15.30;90.90;;;;;;5009393;28;20667;-77
2023/05/17 06:17:56;;;;;;;3.42;1.33;;;14.90;88.00;;;;;;5015891;28;20487;-77
2023/05/17 06:20:22;;;;;;;3.13;1.08;;;14.00;91.40;;;;;;5015472;28;20036;-77
2023/05/17 06:22:48;;;;;;;3.65;0.88;;;13.00;91.10;;;;;;5016001;28;20117;-78
2023/05/17 06:25:13;;;;;;;4.20;1.10;;;12.20;87.80;;;;;;5014015;28;20025;-78
2023/05/17 06:27:39;;;;;;;6.00;1.00;;;11.50;92.00;;;;;;5015382;28;20025;-78
2023/05/17 06:30:06;;;;;;;5.60;0.88;;;11.10;91.40;;;;;;5005591;28;20018;-77
2023/05/17 06:32:31;;;;;;;3.30;0.73;;;10.80;97.50;;;;;;4995011;28;20022;-77
2023/05/17 06:34:57;;;;;;;5.68;2.03;;;10.70;96.70;;;;;;4995378;28;20034;-76
2023/05/17 06:37:23;;;;;;;4.15;1.75;;;10.70;98.80;;;;;;4995728;28;20030;-78
2023/05/17 06:39:52;;;;;;;4.32;2.03;;;10.80;99.80;;;;;;4994474;28;20022;-78
2023/05/17 06:42:18;;;;;;;5.78;1.45;;;10.80;99.90;;;;;;4995356;28;20041;-76
2023/05/17 06:44:44;;;;;;;1.85;1.20;;;11.00;99.90;;;;;;4995269;28;20023;-79
2023/05/17 06:47:09;;;;;;;5.15;1.67;;;11.00;99.10;;;;;;5000933;28;20029;-78
2023/05/17 06:49:36;;;;;;;3.20;1.20;;;11.00;97.00;;;;;;5013429;28;20048;-77
2023/05/17 06:52:04;;;;;;;3.63;1.20;;;11.00;99.90;;;;;;5000725;28;20052;-78
2023/05/17 06:54:30;;;;;;;1.20;0.85;;;11.00;99.60;;;;;;4995791;28;20027;-78
2023/05/17 06:57:03;;;;;;;1.88;0.75;;;11.10;99.50;;;;;;4996649;28;20027;-78
2023/05/17 06:59:29;;;;;;;1.88;1.00;;;11.00;99.90;;;;;;4995441;28;20026;-77
2023/05/17 07:01:55;;;;;;;3.22;1.00;;;11.00;99.10;;;;;;4992998;28;20026;-78
2023/05/17 07:04:21;;;;;;;2.65;0.80;;;11.00;99.90;;;;;;4985110;28;20030;-77
2023/05/17 07:06:46;;;;;;;2.03;1.00;;;10.90;99.90;;;;;;5000733;28;20022;-77
2023/05/17 07:09:12;;;;;;;4.22;0.98;;;10.90;99.90;;;;;;4999903;28;20019;-76
2023/05/17 07:11:38;;;;;;;2.53;0.80;;;10.90;99.90;;;;;;4996533;28;20119;-77
2023/05/17 07:14:04;;;;;;;4.38;0.85;;;10.80;99.90;;;;;;4996699;28;20038;-79
2023/05/17 07:16:29;;;;;;;3.05;0.73;;;10.80;99.90;;;;;;4996396;28;20026;-77
2023/05/17 07:18:55;;;;;;;2.47;0.98;;;11.00;99.90;;;;;;4996495;28;20060;-78
2023/05/17 07:21:22;;;;;;;3.15;0.50;;;11.20;99.90;;;;;;5008461;28;20033;-77
2023/05/17 07:23:51;;;;;;;3.53;0.88;;;11.40;99.90;;;;;;5014266;28;20037;-77
2023/05/17 07:26:19;;;;;;;1.38;0.70;;;11.50;99.10;;;;;;5015102;28;20117;-76
2023/05/17 07:28:45;;;;;;;1.55;0.90;;;11.50;99.00;;;;;;5013580;28;20014;-77
2023/05/17 07:31:11;;;;;;;2.83;1.10;;;11.50;95.80;;;;;;4995702;28;20070;-78
2023/05/17 07:33:37;;;;;;;5.00;1.15;;;11.40;95.70;;;;;;4994547;28;20026;-78
2023/05/17 07:36:03;;;;;;;3.35;1.05;;;11.40;95.80;;;;;;4995016;28;20034;-76
2023/05/17 07:38:29;;;;;;;4.60;1.20;;;11.40;94.10;;;;;;4996643;28;20030;-78
2023/05/17 07:40:55;;;;;;;4.13;1.10;;;11.50;88.70;;;;;;4996798;28;20033;-77
2023/05/17 07:43:21;;;;;;;2.85;1.10;;;11.30;91.20;;;;;;4996205;28;20089;-77
2023/05/17 07:45:46;;;;;;;4.10;1.00;;;11.30;90.30;;;;;;4994977;28;20022;-78
2023/05/17 07:48:12;;;;;;;2.47;1.00;;;11.30;90.00;;;;;;4996286;28;20132;-78
2023/05/17 07:50:38;;;;;;;3.45;1.20;;;11.30;87.10;;;;;;4995906;28;20026;-77
2023/05/17 07:53:04;;;;;;;4.25;1.15;;;11.20;86.20;;;;;;4999643;28;20029;-77
2023/05/17 07:55:30;;;;;;;3.38;1.00;;;11.20;86.30;;;;;;5012496;28;20042;-78
2023/05/17 07:57:55;;;;;;;1.77;0.43;;;11.30;86.70;;;;;;5000920;28;20511;-78
2023/05/17 08:00:22;;;;;;;4.13;0.52;;;11.60;87.90;;;;;;4999795;28;20549;-78
2023/05/17 08:02:48;;;;;;;0.80;0.70;;;12.10;85.30;;;;;;4989706;28;20046;-77
2023/05/17 08:05:14;;;;;;;2.50;0.88;;;12.30;82.80;;;;;;4979568;28;20578;-78
2023/05/17 08:07:39;;;;;;;2.85;1.08;;;12.20;77.30;;;;;;4981014;28;20081;-78
2023/05/17 08:10:05;;;;;;;1.88;0.80;;;11.90;77.40;;;;;;5002452;28;20082;-77
2023/05/17 08:12:31;;;;;;;2.20;0.95;;;11.70;77.80;;;;;;5018999;28;20160;-78
2023/05/17 08:14:57;;;;;;;3.97;0.88;;;11.60;77.00;;;;;;5018828;28;20026;-78
2023/05/17 08:17:23;;;;;;;2.25;0.80;;;11.70;76.20;;;;;;5018718;28;20064;-77
2023/05/17 08:19:48;;;;;;;7.20;1.25;;;11.70;75.80;;;;;;5019756;28;20025;-76
2023/05/17 08:22:15;;;;;;;4.90;1.08;;;11.60;75.60;;;;;;5021753;28;20104;-77
2023/05/17 08:24:41;;;;;;;2.60;0.93;;;11.70;77.20;;;;;;5020004;28;20022;-76
2023/05/17 08:27:06;;;;;;;2.97;0.85;;;12.00;77.00;;;;;;5005375;28;20042;-77
2023/05/17 08:29:32;;;;;;;2.17;0.90;;;12.20;75.50;;;;;;4999915;28;20038;-77
2023/05/17 08:31:57;;;;;;;0.70;0.68;;;12.60;75.50;;;;;;4999638;28;20023;-77
2023/05/17 08:34:23;;;;;;;3.47;1.33;;;12.90;73.80;;;;;;4998714;28;20081;-77
2023/05/17 08:36:49;;;;;;;5.20;2.08;;;12.90;71.20;;;;;;4999956;28;20105;-78
2023/05/17 08:39:15;;;;;;;3.53;1.00;;;12.80;70.80;;;;;;4999647;28;20062;-77
2023/05/17 08:41:41;;;;;;;2.90;0.75;;;13.00;71.30;;;;;;5000376;28;20026;-77
2023/05/17 08:44:07;;;;;;;2.28;0.98;;;13.20;71.20;;;;;;5000699;28;20053;-77
2023/05/17 08:46:35;;;;;;;3.58;1.27;;;13.40;69.90;;;;;;5018873;28;20026;-75
2023/05/17 08:49:04;;;;;;;2.50;1.05;;;13.40;69.20;;;;;;5018631;28;20030;-78
2023/05/17 08:51:31;;;;;;;1.65;0.77;;;13.50;68.50;;;;;;5019440;28;20526;-78
2023/05/17 08:53:57;;;;;;;2.85;1.10;;;13.50;69.30;;;;;;5019100;28;20048;-79
2023/05/17 08:56:25;;;;;;;1.65;0.95;;;13.60;68.50;;;;;;5020772;28;20014;-78
2023/05/17 08:58:55;;;;;;;1.17;0.93;;;13.60;68.10;;;;;;5026042;28;20230;-77
2023/05/17 09:01:22;;;;;;;2.25;0.77;;;13.60;68.30;;;;;;5004808;28;20169;-74
2023/05/17 09:03:48;;;;;;;2.08;1.00;;;13.80;67.30;;;;;;5004742;28;20133;-77
2023/05/17 09:06:17;;;;;;;2.45;0.90;;;13.80;66.50;;;;;;5005596;28;20034;-77
2023/05/17 09:08:43;;;;;;;3.92;0.98;;;13.90;66.40;;;;;;4999671;28;20040;-77
2023/05/17 09:11:09;;;;;;;3.90;0.80;;;13.90;64.30;;;;;;4997093;28;20026;-78
2023/05/17 09:13:36;;;;;;;2.28;0.75;;;13.70;64.00;;;;;;4997413;28;20507;-77
2023/05/17 09:16:01;;;;;;;5.50;1.20;;;13.70;65.30;;;;;;5008579;28;20029;-78
2023/05/17 09:18:31;;;;;;;7.13;0.88;;;13.70;64.80;;;;;;5019269;28;20376;-77
2023/05/17 09:21:02;;;;;;;4.57;1.08;;;13.80;65.10;;;;;;5017040;28;20044;-78
2023/05/17 09:23:31;;;;;;;3.35;0.90;;;14.00;64.40;;;;;;5017792;28;20384;-77
2023/05/17 09:26:03;;;;;;;3.30;0.70;;;14.10;65.20;;;;;;5017215;28;20053;-77
2023/05/17 09:28:37;;;;;;;6.63;1.20;;;14.50;64.90;;;;;;5017463;28;20034;-78
2023/05/17 09:31:06;;;;;;;1.45;0.90;;;14.70;62.40;;;;;;5000986;28;20034;-77
2023/05/17 09:33:32;;;;;;;6.72;1.88;;;14.70;62.90;;;;;;4998245;28;20022;-77
2023/05/17 09:35:58;;;;;;;3.70;0.80;;;14.80;61.80;;;;;;4999810;28;20399;-76
2023/05/17 09:38:26;;;;;;;2.67;1.20;;;15.00;61.40;;;;;;4997824;28;20033;-78
2023/05/17 09:40:52;;;;;;;1.98;0.70;;;15.20;60.50;;;;;;5000302;28;20018;-77
2023/05/17 09:43:26;;;;;;;0.82;0.60;;;15.50;60.60;;;;;;4998556;28;20038;-78
2023/05/17 09:45:56;;;;;;;1.45;0.70;;;15.90;59.60;;;;;;4996978;28;20030;-78
2023/05/17 09:48:23;;;;;;;1.35;0.75;;;16.30;59.20;;;;;;4997628;28;20030;-77
2023/05/17 09:50:51;;;;;;;1.90;0.75;;;16.60;58.30;;;;;;4996878;28;20080;-76
2023/05/17 09:53:25;;;;;;;2.53;1.13;;;16.60;57.40;;;;;;4996417;28;20019;-79
2023/05/17 09:55:53;;;;;;;0.90;0.60;;;16.30;57.00;;;;;;4997185;28;20022;-76
2023/05/17 09:58:20;;;;;;;2.33;0.93;;;16.00;57.20;;;;;;4998322;28;20120;-77
2023/05/17 10:00:52;;;;;;;2.40;1.10;;;15.70;58.30;;;;;;4997240;28;20036;-78
2023/05/17 10:03:19;;;;;;;1.83;0.88;;;15.50;58.80;;;;;;4996414;28;20054;-77
2023/05/17 10:05:45;;;;;;;2.38;0.90;;;15.40;59.50;;;;;;5008093;28;20226;-76
2023/05/17 10:08:13;;;;;;;2.28;1.02;;;15.50;59.30;;;;;;4994949;28;20041;-77
2023/05/17 10:10:41;;;;;;;1.88;1.20;;;15.30;58.40;;;;;;4994058;28;20026;-77
2023/05/17 10:13:12;;;;;;;2.28;0.90;;;15.00;59.30;;;;;;4996267;28;20034;-79
2023/05/17 10:15:39;;;;;;;4.93;1.33;;;14.70;60.50;;;;;;4995061;28;20019;-78
2023/05/17 10:18:08;;;;;;;4.32;1.20;;;14.90;61.10;;;;;;4996699;28;20038;-78
2023/05/17 10:20:34;;;;;;;1.60;0.85;;;15.00;60.60;;;;;;4997299;28;20143;-78
2023/05/17 10:23:02;;;;;;;3.50;1.10;;;15.20;61.60;;;;;;5016090;28;20057;-77
2023/05/17 10:25:28;;;;;;;2.60;1.40;;;15.20;60.50;;;;;;5014883;28;20082;-78
2023/05/17 10:27:54;;;;;;;1.30;0.40;;;15.10;60.50;;;;;;5018556;28;20073;-76
2023/05/17 10:30:20;;;;;;;6.13;1.10;;;15.00;60.90;;;;;;5005053;28;20050;-78
2023/05/17 10:32:48;;;;;;;4.03;1.08;;;14.70;60.60;;;;;;4987894;28;20030;-75
2023/05/17 10:35:15;;;;;;;3.55;0.80;;;14.50;60.00;;;;;;4976441;28;20030;-77
2023/05/17 10:37:41;;;;;;;1.85;1.00;;;14.40;60.80;;;;;;4997125;28;20029;-77
2023/05/17 10:40:12;;;;;;;2.72;1.10;;;14.30;61.20;;;;;;5017580;28;20026;-76
2023/05/17 10:42:49;;;;;;;1.42;0.75;;;14.40;60.60;;;;;;5015983;28;20064;-77
2023/05/17 10:45:15;;;;;;;2.33;1.13;;;14.40;59.60;;;;;;5014499;28;20418;-78
2023/05/17 10:47:42;;;;;;;3.20;1.08;;;14.50;59.70;;;;;;5015020;28;20033;-77
2023/05/17 10:50:12;;;;;;;2.38;0.90;;;14.60;58.90;;;;;;5015259;28;20022;-78
2023/05/17 10:52:44;;;;;;;2.17;0.88;;;14.70;58.50;;;;;;5015189;28;20218;-76
2023/05/17 10:55:09;;;;;;;2.20;1.10;;;14.70;58.50;;;;;;5012705;28;20022;-77
2023/05/17 10:57:37;;;;;;;1.60;0.70;;;14.70;57.40;;;;;;5015033;28;20060;-77
2023/05/17 11:00:08;;;;;;;2.92;1.10;;;14.50;58.10;;;;;;5004570;28;20073;-78
2023/05/17 11:02:38;;;;;;;2.95;1.30;;;14.50;58.10;;;;;;4996908;28;20019;-78
2023/05/17 11:05:04;;;;;;;2.38;1.00;;;14.40;58.60;;;;;;4995091;28;20213;-77
2023/05/17 11:07:32;;;;;;;3.20;0.82;;;14.40;58.20;;;;;;4994820;28;20496;-78
2023/05/17 11:10:07;;;;;;;4.18;1.10;;;14.50;58.40;;;;;;4997471;28;20069;-78
2023/05/17 11:12:52;;;;;;;6.05;0.95;;;14.50;58.00;;;;;;5014728;28;20511;-78
2023/05/17 11:15:25;;;;;;;4.80;1.40;;;14.80;57.40;;;;;;5016373;28;20113;-76
2023/05/17 11:17:55;;;;;;;2.15;1.10;;;15.40;54.90;;;;;;5014063;28;20034;-78
2023/05/17 11:20:24;;;;;;;3.97;1.25;;;15.60;53.80;;;;;;5015325;28;20368;-77
2023/05/17 11:23:00;;;;;;;1.88;0.93;;;15.50;54.10;;;;;;5014956;28;20042;-77
2023/05/17 11:25:36;;;;;;;1.20;0.75;;;15.20;55.50;;;;;;5012078;28;20018;-78
2023/05/17 11:28:20;;;;;;;3.80;1.88;;;14.90;56.50;;;;;;5014648;28;20045;-78
2023/05/17 11:30:52;;;;;;;1.55;0.90;;;14.90;56.70;;;;;;4999648;28;20380;-78
2023/05/17 11:33:19;;;;;;;;;;;15.10;55.80;;;;;;4989046;28;20019;-80
2023/05/17 11:35:46;;;;;;;4.78;0.98;;;15.70;55.40;;;;;;4977566;28;19906;-78
2023/05/17 11:38:20;;;;;;;1.77;0.82;;;16.30;53.30;;;;;;4979107;28;20031;-78
2023/05/17 11:40:48;;;;;;;4.72;1.15;;;16.70;51.80;;;;;;4976824;28;20039;-77
2023/05/17 11:43:18;;;;;;;3.28;0.98;;;17.00;51.40;;;;;;4985533;28;20109;-78
2023/05/17 11:46:00;;;;;;;3.15;1.10;;;16.80;50.50;;;;;;4998769;28;20390;-78
2023/05/17 11:48:26;;;;;;;1.55;0.77;;;16.10;51.80;;;;;;4996895;28;20018;-79
2023/05/17 11:50:54;;;;;;;2.92;0.90;;;15.60;53.00;;;;;;5000326;28;20046;-77
2023/05/17 11:53:20;;;;;;;2.15;1.00;;;15.30;53.20;;;;;;4998217;28;20026;-79
2023/05/17 11:55:50;;;;;;;1.80;0.70;;;15.10;53.90;;;;;;4998034;28;20026;-78
2023/05/17 11:58:18;;;;;;;1.17;1.00;;;15.20;53.60;;;;;;4997883;28;20030;-79
2023/05/17 12:00:44;;;;;;;1.90;0.95;;;15.80;53.00;;;;;;5001715;28;20799;-78
2023/05/17 12:03:23;;;;;;;3.42;1.42;;;15.70;52.10;;;;;;4991758;28;20042;-77
2023/05/17 12:06:09;;;;;;;1.58;0.90;;;15.60;53.50;;;;;;4997033;28;20030;-77
2023/05/17 12:08:37;;;;;;;3.25;1.10;;;15.60;53.90;;;;;;4999027;28;20097;-78
2023/05/17 12:11:10;;;;;;;2.53;1.05;;;15.70;53.50;;;;;;5000239;28;20026;-78
2023/05/17 12:13:35;;;;;;;;;;;16.20;52.80;;;;;;4998336;28;20045;-78
2023/05/17 12:16:04;;;;;;;1.90;1.00;;;16.80;51.30;;;;;;5002344;28;19912;-78
2023/05/17 12:18:43;;;;;;;4.72;1.67;;;17.50;50.30;;;;;;5017189;28;20491;-77
2023/05/17 12:21:13;;;;;;;2.78;1.00;;;17.80;48.70;;;;;;5016204;28;20033;-77
2023/05/17 12:23:43;;;;;;;2.35;1.13;;;17.40;49.40;;;;;;5017898;28;20049;-77
2023/05/17 12:26:10;;;;;;;4.18;1.88;;;17.00;49.70;;;;;;5016240;28;20102;-79
2023/05/17 12:28:57;;;;;;;4.20;1.70;;;16.50;50.40;;;;;;5018909;28;20040;-79
2023/05/17 12:31:28;;;;;;;2.30;1.40;;;16.30;51.30;;;;;;4994310;28;20034;-78
2023/05/17 12:33:55;;;;;;;2.28;1.33;;;16.30;51.30;;;;;;4999381;28;20034;-79
2023/05/17 12:36:21;;;;;;;2.33;1.05;;;16.30;50.90;;;;;;5000908;28;20439;-78
2023/05/17 12:38:47;;;;;;;2.30;1.83;;;16.10;50.20;;;;;;4998664;28;20105;-77
2023/05/17 12:41:14;;;;;;;1.63;1.52;;;15.70;51.30;;;;;;5000402;28;20061;-78
2023/05/17 12:43:43;;;;;;;2.83;1.30;;;15.50;52.50;;;;;;5000949;28;20038;-77
2023/05/17 12:46:17;;;;;;;1.48;1.13;;;15.40;53.60;;;;;;4997572;28;20030;-79
2023/05/17 12:48:43;;;;;;;1.50;1.30;;;15.60;54.20;;;;;;5000249;28;20113;-78
2023/05/17 12:51:11;;;;;;;6.05;1.50;;;15.90;53.20;;;;;;4998931;28;20089;-77
2023/05/17 12:54:00;;;;;;;2.42;1.40;;;16.40;52.50;;;;;;4998304;28;20511;-78
2023/05/17 12:56:28;;;;;;;1.77;1.27;;;17.10;51.00;;;;;;4998748;28;20022;-78